sensor_id;sensor_type;location;lat;lon;timestamp;pressure;altitude;pressure_sealevel;temperature;humidity
71976;BME280;60680;52.182;5.398;2022-10-04T00:04:53;102397.47;;;13.36;84.70
71976;BME280;60680;52.182;5.398;2022-10-04T00:07:26;102401.22;;;13.29;84.59
71976;BME280;60680;52.182;5.398;2022-10-04T00:12:54;102403.78;;;13.31;84.46
71976;BME280;60680;52.182;5.398;2022-10-04T00:15:24;102393.38;;;13.29;85.03
71976;BME280;60680;52.182;5.398;2022-10-04T00:25:49;102387.97;;;13.09;85.48
71976;BME280;60680;52.182;5.398;2022-10-04T00:36:38;102369.03;;;13.27;84.35
71976;BME280;60680;52.182;5.398;2022-10-04T00:44:20;102353.69;;;13.18;84.87
71976;BME280;60680;52.182;5.398;2022-10-04T00:46:48;102353.72;;;13.16;85.33
71976;BME280;60680;52.182;5.398;2022-10-04T00:49:19;102358.97;;;13.16;85.24
71976;BME280;60680;52.182;5.398;2022-10-04T00:51:52;102366.75;;;13.18;85.20
71976;BME280;60680;52.182;5.398;2022-10-04T00:56:56;102375.44;;;13.18;85.16
71976;BME280;60680;52.182;5.398;2022-10-04T01:01:59;102366.00;;;13.14;85.32
71976;BME280;60680;52.182;5.398;2022-10-04T01:04:37;102349.41;;;13.15;85.23
71976;BME280;60680;52.182;5.398;2022-10-04T01:07:06;102347.75;;;13.13;84.95
71976;BME280;60680;52.182;5.398;2022-10-04T01:09:38;102339.91;;;13.13;85.23
71976;BME280;60680;52.182;5.398;2022-10-04T01:12:16;102341.69;;;13.12;85.41
71976;BME280;60680;52.182;5.398;2022-10-04T01:14:58;102347.03;;;13.09;85.11
71976;BME280;60680;52.182;5.398;2022-10-04T01:17:29;102342.75;;;13.06;85.73
71976;BME280;60680;52.182;5.398;2022-10-04T01:19:55;102338.41;;;13.07;85.59
71976;BME280;60680;52.182;5.398;2022-10-04T01:22:40;102330.47;;;13.09;85.26
71976;BME280;60680;52.182;5.398;2022-10-04T01:25:07;102330.69;;;13.02;84.93
71976;BME280;60680;52.182;5.398;2022-10-04T01:30:06;102307.50;;;12.95;85.21
71976;BME280;60680;52.182;5.398;2022-10-04T01:32:36;102304.13;;;12.91;85.04
71976;BME280;60680;52.182;5.398;2022-10-04T01:35:03;102295.63;;;12.86;85.03
71976;BME280;60680;52.182;5.398;2022-10-04T01:37:30;102298.41;;;12.81;85.13
71976;BME280;60680;52.182;5.398;2022-10-04T01:39:56;102308.94;;;12.78;85.27
71976;BME280;60680;52.182;5.398;2022-10-04T01:42:29;102311.59;;;12.77;85.00
71976;BME280;60680;52.182;5.398;2022-10-04T01:45:06;102320.38;;;12.76;85.62
71976;BME280;60680;52.182;5.398;2022-10-04T01:50:27;102314.97;;;12.80;85.15
71976;BME280;60680;52.182;5.398;2022-10-04T01:55:38;102291.59;;;12.77;85.00
71976;BME280;60680;52.182;5.398;2022-10-04T02:00:35;102271.72;;;12.73;85.40
71976;BME280;60680;52.182;5.398;2022-10-04T02:03:09;102269.19;;;12.70;85.22
71976;BME280;60680;52.182;5.398;2022-10-04T02:05:42;102267.72;;;12.63;85.15
71976;BME280;60680;52.182;5.398;2022-10-04T02:08:13;102272.09;;;12.62;84.79
71976;BME280;60680;52.182;5.398;2022-10-04T02:10:42;102259.94;;;12.61;84.67
71976;BME280;60680;52.182;5.398;2022-10-04T02:13:14;102253.06;;;12.59;85.00
71976;BME280;60680;52.182;5.398;2022-10-04T02:15:45;102265.44;;;12.54;84.68
71976;BME280;60680;52.182;5.398;2022-10-04T02:18:15;102258.56;;;12.51;85.28
71976;BME280;60680;52.182;5.398;2022-10-04T02:20:44;102255.22;;;12.48;84.48
71976;BME280;60680;52.182;5.398;2022-10-04T02:23:15;102248.22;;;12.48;85.10
71976;BME280;60680;52.182;5.398;2022-10-04T02:25:43;102237.78;;;12.48;85.08
71976;BME280;60680;52.182;5.398;2022-10-04T02:28:11;102239.59;;;12.46;84.52
71976;BME280;60680;52.182;5.398;2022-10-04T02:30:42;102230.81;;;12.49;85.06
71976;BME280;60680;52.182;5.398;2022-10-04T02:33:10;102227.50;;;12.43;84.44
71976;BME280;60680;52.182;5.398;2022-10-04T02:35:42;102214.47;;;12.43;85.49
71976;BME280;60680;52.182;5.398;2022-10-04T02:38:23;102210.97;;;12.43;85.13
71976;BME280;60680;52.182;5.398;2022-10-04T02:43:31;102205.94;;;12.38;84.97
71976;BME280;60680;52.182;5.398;2022-10-04T02:51:52;102199.41;;;12.27;85.36
71976;BME280;60680;52.182;5.398;2022-10-04T02:56:56;102198.53;;;12.26;84.64
71976;BME280;60680;52.182;5.398;2022-10-04T02:59:23;102196.16;;;12.20;85.07
71976;BME280;60680;52.182;5.398;2022-10-04T03:01:53;102202.22;;;12.20;85.19
71976;BME280;60680;52.182;5.398;2022-10-04T03:04:24;102198.78;;;12.20;85.02
71976;BME280;60680;52.182;5.398;2022-10-04T03:06:52;102192.69;;;12.19;85.42
71976;BME280;60680;52.182;5.398;2022-10-04T03:09:22;102180.63;;;12.15;85.04
71976;BME280;60680;52.182;5.398;2022-10-04T03:11:55;102190.34;;;12.12;85.58
71976;BME280;60680;52.182;5.398;2022-10-04T03:14:24;102189.47;;;12.11;85.70
71976;BME280;60680;52.182;5.398;2022-10-04T03:16:58;102179.16;;;12.08;85.26
71976;BME280;60680;52.182;5.398;2022-10-04T03:19:28;102182.75;;;12.06;85.42
71976;BME280;60680;52.182;5.398;2022-10-04T03:22:08;102185.31;;;12.07;85.92
71976;BME280;60680;52.182;5.398;2022-10-04T03:24:47;102174.06;;;12.05;85.91
71976;BME280;60680;52.182;5.398;2022-10-04T03:27:19;102167.25;;;12.01;86.20
71976;BME280;60680;52.182;5.398;2022-10-04T03:29:47;102166.50;;;11.97;86.05
71976;BME280;60680;52.182;5.398;2022-10-04T03:32:16;102165.81;;;11.92;86.08
71976;BME280;60680;52.182;5.398;2022-10-04T03:34:52;102167.47;;;11.95;85.40
71976;BME280;60680;52.182;5.398;2022-10-04T03:37:21;102151.97;;;11.90;85.35
71976;BME280;60680;52.182;5.398;2022-10-04T03:39:51;102159.03;;;11.87;85.95
71976;BME280;60680;52.182;5.398;2022-10-04T03:42:27;102162.47;;;11.89;85.98
71976;BME280;60680;52.182;5.398;2022-10-04T03:45:16;102172.09;;;11.85;85.45
71976;BME280;60680;52.182;5.398;2022-10-04T03:47:45;102163.69;;;11.77;85.91
71976;BME280;60680;52.182;5.398;2022-10-04T03:50:20;102155.13;;;11.73;86.28
71976;BME280;60680;52.182;5.398;2022-10-04T03:52:58;102157.88;;;11.69;86.38
71976;BME280;60680;52.182;5.398;2022-10-04T03:55:38;102159.44;;;11.74;85.85
71976;BME280;60680;52.182;5.398;2022-10-04T03:58:13;102158.59;;;11.74;85.70
71976;BME280;60680;52.182;5.398;2022-10-04T04:04:05;102148.25;;;11.71;85.73
71976;BME280;60680;52.182;5.398;2022-10-04T04:06:45;102152.53;;;11.47;86.73
71976;BME280;60680;52.182;5.398;2022-10-04T04:09:23;102144.84;;;11.43;86.44
71976;BME280;60680;52.182;5.398;2022-10-04T04:11:54;102153.03;;;11.58;85.83
71976;BME280;60680;52.182;5.398;2022-10-04T04:14:26;102155.53;;;11.61;86.08
71976;BME280;60680;52.182;5.398;2022-10-04T04:16:54;102153.09;;;11.56;85.88
71976;BME280;60680;52.182;5.398;2022-10-04T04:19:40;102145.28;;;11.56;85.63
71976;BME280;60680;52.182;5.398;2022-10-04T04:22:13;102127.91;;;11.55;86.30
71976;BME280;60680;52.182;5.398;2022-10-04T04:24:43;102128.06;;;11.51;86.41
71976;BME280;60680;52.182;5.398;2022-10-04T04:27:11;102129.84;;;11.50;86.28
71976;BME280;60680;52.182;5.398;2022-10-04T04:29:47;102132.59;;;11.46;86.18
71976;BME280;60680;52.182;5.398;2022-10-04T04:34:51;102139.69;;;11.40;86.37
71976;BME280;60680;52.182;5.398;2022-10-04T04:37:19;102137.91;;;11.42;85.67
71976;BME280;60680;52.182;5.398;2022-10-04T04:39:48;102135.25;;;11.44;86.22
71976;BME280;60680;52.182;5.398;2022-10-04T04:42:29;102130.88;;;11.45;85.81
71976;BME280;60680;52.182;5.398;2022-10-04T04:45:01;102128.38;;;11.41;85.23
71976;BME280;60680;52.182;5.398;2022-10-04T04:47:32;102123.34;;;11.37;85.53
71976;BME280;60680;52.182;5.398;2022-10-04T04:50:33;102134.53;;;11.39;85.13
71976;BME280;60680;52.182;5.398;2022-10-04T04:53:11;102133.00;;;11.33;85.50
71976;BME280;60680;52.182;5.398;2022-10-04T04:55:45;102133.03;;;11.32;85.36
71976;BME280;60680;52.182;5.398;2022-10-04T04:58:34;102127.94;;;11.29;85.33
71976;BME280;60680;52.182;5.398;2022-10-04T05:01:06;102123.63;;;11.28;85.97
71976;BME280;60680;52.182;5.398;2022-10-04T05:03:36;102113.31;;;11.25;85.17
71976;BME280;60680;52.182;5.398;2022-10-04T05:06:03;102118.56;;;11.23;85.85
71976;BME280;60680;52.182;5.398;2022-10-04T05:08:32;102122.22;;;11.17;85.62
71976;BME280;60680;52.182;5.398;2022-10-04T05:13:40;102128.13;;;11.22;85.67
71976;BME280;60680;52.182;5.398;2022-10-04T05:16:13;102125.53;;;11.22;86.10
71976;BME280;60680;52.182;5.398;2022-10-04T05:18:42;102130.94;;;11.16;85.95
71976;BME280;60680;52.182;5.398;2022-10-04T05:21:26;102136.13;;;11.18;85.96
71976;BME280;60680;52.182;5.398;2022-10-04T05:23:55;102131.81;;;11.15;86.23
71976;BME280;60680;52.182;5.398;2022-10-04T05:26:26;102129.22;;;11.15;85.54
71976;BME280;60680;52.182;5.398;2022-10-04T05:28:55;102124.94;;;11.14;85.53
71976;BME280;60680;52.182;5.398;2022-10-04T05:33:59;102127.63;;;11.11;85.48
71976;BME280;60680;52.182;5.398;2022-10-04T05:36:44;102134.50;;;11.14;85.58
71976;BME280;60680;52.182;5.398;2022-10-04T05:39:26;102128.41;;;11.13;86.36
71976;BME280;60680;52.182;5.398;2022-10-04T05:44:34;102138.16;;;11.08;86.33
71976;BME280;60680;52.182;5.398;2022-10-04T05:47:05;102145.91;;;11.10;86.37
71976;BME280;60680;52.182;5.398;2022-10-04T05:49:39;102135.50;;;11.10;86.51
71976;BME280;60680;52.182;5.398;2022-10-04T05:52:33;102138.91;;;11.12;86.26
71976;BME280;60680;52.182;5.398;2022-10-04T05:55:22;102136.34;;;11.10;86.54
71976;BME280;60680;52.182;5.398;2022-10-04T05:58:12;102135.44;;;11.11;86.57
71976;BME280;60680;52.182;5.398;2022-10-04T06:01:19;102138.84;;;11.13;87.10
71976;BME280;60680;52.182;5.398;2022-10-04T06:06:44;102137.19;;;11.11;87.09
71976;BME280;60680;52.182;5.398;2022-10-04T06:17:46;102142.44;;;11.09;86.98
71976;BME280;60680;52.182;5.398;2022-10-04T06:20:53;102134.75;;;11.06;86.88
71976;BME280;60680;52.182;5.398;2022-10-04T06:23:17;102140.91;;;11.04;87.07
71976;BME280;60680;52.182;5.398;2022-10-04T06:26:10;102140.78;;;11.07;86.46
71976;BME280;60680;52.182;5.398;2022-10-04T06:28:48;102131.31;;;11.04;86.59
71976;BME280;60680;52.182;5.398;2022-10-04T06:31:33;102131.31;;;11.04;87.20
71976;BME280;60680;52.182;5.398;2022-10-04T06:34:18;102127.88;;;11.04;87.08
71976;BME280;60680;52.182;5.398;2022-10-04T06:37:05;102121.03;;;11.01;87.40
71976;BME280;60680;52.182;5.398;2022-10-04T06:40:07;102118.34;;;11.02;87.04
71976;BME280;60680;52.182;5.398;2022-10-04T06:48:23;102111.78;;;11.17;87.62
71976;BME280;60680;52.182;5.398;2022-10-04T06:51:06;102105.50;;;11.25;86.60
71976;BME280;60680;52.182;5.398;2022-10-04T06:59:04;102088.28;;;11.46;86.63
71976;BME280;60680;52.182;5.398;2022-10-04T07:01:45;102088.00;;;11.53;86.69
71976;BME280;60680;52.182;5.398;2022-10-04T07:04:28;102082.59;;;11.59;85.92
71976;BME280;60680;52.182;5.398;2022-10-04T07:07:34;102078.72;;;11.71;86.50
71976;BME280;60680;52.182;5.398;2022-10-04T07:15:50;102089.56;;;11.84;85.74
71976;BME280;60680;52.182;5.398;2022-10-04T07:18:28;102093.00;;;11.84;86.09
71976;BME280;60680;52.182;5.398;2022-10-04T07:21:03;102091.03;;;11.93;85.92
71976;BME280;60680;52.182;5.398;2022-10-04T07:23:38;102095.84;;;12.03;85.03
71976;BME280;60680;52.182;5.398;2022-10-04T07:26:25;102088.91;;;12.02;85.21
71976;BME280;60680;52.182;5.398;2022-10-04T07:28:59;102095.44;;;12.14;85.52
71976;BME280;60680;52.182;5.398;2022-10-04T07:31:49;102094.03;;;12.29;85.07
71976;BME280;60680;52.182;5.398;2022-10-04T07:34:22;102104.47;;;12.29;84.06
71976;BME280;60680;52.182;5.398;2022-10-04T07:36:53;102101.22;;;12.46;84.01
71976;BME280;60680;52.182;5.398;2022-10-04T07:39:25;102100.88;;;12.55;83.76
71976;BME280;60680;52.182;5.398;2022-10-04T07:42:06;102097.84;;;12.66;83.99
71976;BME280;60680;52.182;5.398;2022-10-04T07:44:42;102103.50;;;12.77;83.41
71976;BME280;60680;52.182;5.398;2022-10-04T07:47:18;102098.47;;;12.95;82.87
71976;BME280;60680;52.182;5.398;2022-10-04T07:49:45;102102.22;;;13.10;82.29
71976;BME280;60680;52.182;5.398;2022-10-04T07:53:16;102101.53;;;13.26;81.42
71976;BME280;60680;52.182;5.398;2022-10-04T07:58:13;102102.34;;;13.49;81.66
71976;BME280;60680;52.182;5.398;2022-10-04T08:03:39;102117.00;;;13.33;81.16
71976;BME280;60680;52.182;5.398;2022-10-04T08:07:02;102099.38;;;13.36;80.65
71976;BME280;60680;52.182;5.398;2022-10-04T08:09:43;102091.50;;;13.38;81.18
71976;BME280;60680;52.182;5.398;2022-10-04T08:12:20;102093.25;;;13.37;80.90
71976;BME280;60680;52.182;5.398;2022-10-04T08:17:59;102109.94;;;13.35;81.14
71976;BME280;60680;52.182;5.398;2022-10-04T08:26:06;102102.50;;;13.85;79.38
71976;BME280;60680;52.182;5.398;2022-10-04T08:36:57;102086.28;;;14.17;78.13
71976;BME280;60680;52.182;5.398;2022-10-04T08:57:01;102090.66;;;14.56;75.50
71976;BME280;60680;52.182;5.398;2022-10-04T09:02:41;102083.16;;;14.84;75.37
71976;BME280;60680;52.182;5.398;2022-10-04T09:08:34;102090.25;;;14.82;74.81
71976;BME280;60680;52.182;5.398;2022-10-04T09:11:35;102087.50;;;14.85;75.18
71976;BME280;60680;52.182;5.398;2022-10-04T09:14:35;102086.44;;;15.07;75.06
71976;BME280;60680;52.182;5.398;2022-10-04T09:20:53;102090.28;;;15.17;73.43
71976;BME280;60680;52.182;5.398;2022-10-04T09:26:00;102087.38;;;15.41;73.84
71976;BME280;60680;52.182;5.398;2022-10-04T09:39:58;102080.84;;;15.65;72.21
71976;BME280;60680;52.182;5.398;2022-10-04T09:45:43;102079.16;;;15.47;72.39
71976;BME280;60680;52.182;5.398;2022-10-04T09:48:23;102082.25;;;15.55;72.60
71976;BME280;60680;52.182;5.398;2022-10-04T09:56:44;102067.91;;;15.80;71.77
71976;BME280;60680;52.182;5.398;2022-10-04T10:04:41;102065.28;;;15.62;72.18
71976;BME280;60680;52.182;5.398;2022-10-04T10:07:49;102063.09;;;15.53;72.64
71976;BME280;60680;52.182;5.398;2022-10-04T10:13:21;102063.56;;;15.61;73.19
71976;BME280;60680;52.182;5.398;2022-10-04T10:18:47;102062.56;;;15.81;71.75
71976;BME280;60680;52.182;5.398;2022-10-04T10:21:31;102071.22;;;15.99;72.06
71976;BME280;60680;52.182;5.398;2022-10-04T10:33:04;102073.03;;;16.15;71.98
71976;BME280;60680;52.182;5.398;2022-10-04T10:35:37;102072.97;;;16.32;70.28
71976;BME280;60680;52.182;5.398;2022-10-04T10:38:20;102072.69;;;16.52;69.47
71976;BME280;60680;52.182;5.398;2022-10-04T10:41:31;102081.09;;;16.59;69.48
71976;BME280;60680;52.182;5.398;2022-10-04T10:47:14;102061.25;;;16.38;68.87
71976;BME280;60680;52.182;5.398;2022-10-04T11:12:26;102030.22;;;17.06;67.49
71976;BME280;60680;52.182;5.398;2022-10-04T11:26:16;102020.81;;;17.47;64.29
71976;BME280;60680;52.182;5.398;2022-10-04T11:39:52;102005.84;;;17.33;65.65
71976;BME280;60680;52.182;5.398;2022-10-04T11:45:52;102010.53;;;17.14;63.34
71976;BME280;60680;52.182;5.398;2022-10-04T11:48:39;102010.47;;;16.99;64.47
71976;BME280;60680;52.182;5.398;2022-10-04T11:54:20;102002.03;;;17.08;65.67
71976;BME280;60680;52.182;5.398;2022-10-04T12:00:10;102002.22;;;17.05;64.35
71976;BME280;60680;52.182;5.398;2022-10-04T12:03:00;102015.50;;;17.18;64.90
71976;BME280;60680;52.182;5.398;2022-10-04T12:14:42;101993.16;;;17.54;63.51
71976;BME280;60680;52.182;5.398;2022-10-04T12:29:07;101973.59;;;17.01;66.38
71976;BME280;60680;52.182;5.398;2022-10-04T12:31:49;101981.38;;;17.02;64.91
71976;BME280;60680;52.182;5.398;2022-10-04T12:34:28;101966.38;;;17.19;65.17
71976;BME280;60680;52.182;5.398;2022-10-04T12:45:01;101951.06;;;17.68;63.07
71976;BME280;60680;52.182;5.398;2022-10-04T12:47:56;101943.31;;;17.80;63.21
71976;BME280;60680;52.182;5.398;2022-10-04T12:50:59;101938.03;;;17.80;61.03
71976;BME280;60680;52.182;5.398;2022-10-04T12:56:13;101953.31;;;17.75;59.83
71976;BME280;60680;52.182;5.398;2022-10-04T12:59:12;101939.56;;;17.84;59.21
71976;BME280;60680;52.182;5.398;2022-10-04T13:04:48;101943.22;;;17.81;58.53
71976;BME280;60680;52.182;5.398;2022-10-04T13:07:40;101931.47;;;17.87;58.13
71976;BME280;60680;52.182;5.398;2022-10-04T13:15:56;101924.81;;;18.08;59.19
71976;BME280;60680;52.182;5.398;2022-10-04T13:24:10;101931.91;;;18.48;57.31
71976;BME280;60680;52.182;5.398;2022-10-04T13:26:44;101933.72;;;18.20;57.53
71976;BME280;60680;52.182;5.398;2022-10-04T13:29:27;101921.47;;;18.06;57.93
71976;BME280;60680;52.182;5.398;2022-10-04T13:35:24;101901.22;;;18.07;59.04
71976;BME280;60680;52.182;5.398;2022-10-04T13:41:15;101888.53;;;17.99;59.99
71976;BME280;60680;52.182;5.398;2022-10-04T13:49:31;101860.50;;;17.85;61.43
71976;BME280;60680;52.182;5.398;2022-10-04T13:55:26;101851.16;;;17.80;61.48
71976;BME280;60680;52.182;5.398;2022-10-04T13:58:26;101854.75;;;17.79;61.28
71976;BME280;60680;52.182;5.398;2022-10-04T14:12:39;101854.09;;;17.75;62.32
71976;BME280;60680;52.182;5.398;2022-10-04T14:15:32;101848.72;;;17.77;63.09
71976;BME280;60680;52.182;5.398;2022-10-04T14:18:38;101855.47;;;17.81;62.53
71976;BME280;60680;52.182;5.398;2022-10-04T14:29:26;101860.00;;;17.79;63.46
71976;BME280;60680;52.182;5.398;2022-10-04T14:32:34;101859.03;;;17.94;62.98
71976;BME280;60680;52.182;5.398;2022-10-04T14:35:30;101862.41;;;17.96;62.91
71976;BME280;60680;52.182;5.398;2022-10-04T14:38:17;101867.56;;;17.98;62.52
71976;BME280;60680;52.182;5.398;2022-10-04T14:41:16;101851.19;;;18.07;62.46
71976;BME280;60680;52.182;5.398;2022-10-04T14:49:19;101856.22;;;18.10;62.93
71976;BME280;60680;52.182;5.398;2022-10-04T14:54:52;101855.59;;;18.06;62.70
71976;BME280;60680;52.182;5.398;2022-10-04T14:57:57;101868.56;;;18.09;64.21
71976;BME280;60680;52.182;5.398;2022-10-04T15:00:47;101861.72;;;18.07;63.65
71976;BME280;60680;52.182;5.398;2022-10-04T15:03:25;101862.75;;;18.04;63.68
71976;BME280;60680;52.182;5.398;2022-10-04T15:06:08;101870.75;;;18.03;64.31
71976;BME280;60680;52.182;5.398;2022-10-04T15:11:06;101876.72;;;17.92;63.05
71976;BME280;60680;52.182;5.398;2022-10-04T15:13:56;101870.50;;;17.93;63.35
71976;BME280;60680;52.182;5.398;2022-10-04T15:16:38;101867.03;;;17.92;64.20
71976;BME280;60680;52.182;5.398;2022-10-04T15:22:04;101873.34;;;17.90;63.79
71976;BME280;60680;52.182;5.398;2022-10-04T15:32:54;101865.06;;;17.82;65.38
71976;BME280;60680;52.182;5.398;2022-10-04T15:35:36;101861.03;;;17.76;65.55
71976;BME280;60680;52.182;5.398;2022-10-04T15:43:40;101864.06;;;17.70;65.69
71976;BME280;60680;52.182;5.398;2022-10-04T15:49:13;101851.94;;;17.67;66.09
71976;BME280;60680;52.182;5.398;2022-10-04T15:52:18;101841.41;;;17.67;66.51
71976;BME280;60680;52.182;5.398;2022-10-04T15:58:30;101849.59;;;17.63;66.90
71976;BME280;60680;52.182;5.398;2022-10-04T16:04:20;101854.41;;;17.56;66.87
71976;BME280;60680;52.182;5.398;2022-10-04T16:18:34;101861.94;;;17.62;68.12
71976;BME280;60680;52.182;5.398;2022-10-04T16:21:15;101858.72;;;17.57;67.49
71976;BME280;60680;52.182;5.398;2022-10-04T16:24:56;101871.06;;;17.57;68.45
71976;BME280;60680;52.182;5.398;2022-10-04T16:30:14;101862.41;;;17.55;68.17
71976;BME280;60680;52.182;5.398;2022-10-04T16:33:32;101866.19;;;17.50;68.94
71976;BME280;60680;52.182;5.398;2022-10-04T16:36:18;101866.69;;;17.43;68.54
71976;BME280;60680;52.182;5.398;2022-10-04T16:38:51;101876.53;;;17.39;69.49
71976;BME280;60680;52.182;5.398;2022-10-04T16:44:33;101866.09;;;17.38;69.91
71976;BME280;60680;52.182;5.398;2022-10-04T16:47:36;101861.69;;;17.38;69.85
71976;BME280;60680;52.182;5.398;2022-10-04T16:50:02;101871.66;;;17.33;69.71
71976;BME280;60680;52.182;5.398;2022-10-04T16:52:35;101876.00;;;17.34;70.44
71976;BME280;60680;52.182;5.398;2022-10-04T16:57:35;101878.81;;;17.31;70.45
71976;BME280;60680;52.182;5.398;2022-10-04T17:00:31;101868.09;;;17.34;70.10
71976;BME280;60680;52.182;5.398;2022-10-04T17:03:10;101864.81;;;17.30;70.04
71976;BME280;60680;52.182;5.398;2022-10-04T17:05:53;101868.38;;;17.29;70.50
71976;BME280;60680;52.182;5.398;2022-10-04T17:08:30;101862.47;;;17.26;70.28
71976;BME280;60680;52.182;5.398;2022-10-04T17:14:05;101879.25;;;17.23;70.25
71976;BME280;60680;52.182;5.398;2022-10-04T17:16:53;101869.91;;;17.19;70.50
71976;BME280;60680;52.182;5.398;2022-10-04T17:19:32;101865.34;;;17.21;70.74
71976;BME280;60680;52.182;5.398;2022-10-04T17:25:27;101858.72;;;17.16;70.74
71976;BME280;60680;52.182;5.398;2022-10-04T17:28:12;101866.91;;;17.11;71.30
71976;BME280;60680;52.182;5.398;2022-10-04T17:30:55;101862.66;;;17.08;71.28
71976;BME280;60680;52.182;5.398;2022-10-04T17:39:01;101855.50;;;17.10;71.15
71976;BME280;60680;52.182;5.398;2022-10-04T17:44:38;101858.13;;;17.10;71.15
71976;BME280;60680;52.182;5.398;2022-10-04T17:47:26;101862.66;;;17.08;71.34
71976;BME280;60680;52.182;5.398;2022-10-04T17:50:18;101872.53;;;17.05;71.00
71976;BME280;60680;52.182;5.398;2022-10-04T17:53:12;101869.97;;;17.03;71.25
71976;BME280;60680;52.182;5.398;2022-10-04T17:55:59;101873.44;;;17.04;71.49
71976;BME280;60680;52.182;5.398;2022-10-04T18:01:16;101871.56;;;17.06;71.86
71976;BME280;60680;52.182;5.398;2022-10-04T18:03:55;101870.94;;;17.02;71.88
71976;BME280;60680;52.182;5.398;2022-10-04T18:06:32;101863.06;;;17.02;71.75
71976;BME280;60680;52.182;5.398;2022-10-04T18:09:05;101859.47;;;17.03;71.82
71976;BME280;60680;52.182;5.398;2022-10-04T18:12:06;101854.88;;;17.07;71.88
71976;BME280;60680;52.182;5.398;2022-10-04T18:15:05;101856.53;;;17.08;72.16
71976;BME280;60680;52.182;5.398;2022-10-04T18:17:44;101860.13;;;17.07;71.83
71976;BME280;60680;52.182;5.398;2022-10-04T18:20:21;101861.16;;;17.04;72.00
71976;BME280;60680;52.182;5.398;2022-10-04T18:23:01;101871.56;;;17.06;72.22
71976;BME280;60680;52.182;5.398;2022-10-04T18:25:39;101865.69;;;17.02;72.83
71976;BME280;60680;52.182;5.398;2022-10-04T18:36:22;101862.28;;;17.00;72.37
71976;BME280;60680;52.182;5.398;2022-10-04T18:41:44;101853.75;;;16.97;72.51
71976;BME280;60680;52.182;5.398;2022-10-04T18:44:22;101857.50;;;16.92;72.30
71976;BME280;60680;52.182;5.398;2022-10-04T18:46:55;101849.53;;;16.94;72.67
71976;BME280;60680;52.182;5.398;2022-10-04T18:49:23;101851.28;;;16.94;72.71
71976;BME280;60680;52.182;5.398;2022-10-04T18:57:39;101852.44;;;16.89;72.81
71976;BME280;60680;52.182;5.398;2022-10-04T19:00:32;101851.78;;;16.86;73.19
71976;BME280;60680;52.182;5.398;2022-10-04T19:03:32;101844.81;;;16.85;73.34
71976;BME280;60680;52.182;5.398;2022-10-04T19:06:12;101841.34;;;16.84;73.24
71976;BME280;60680;52.182;5.398;2022-10-04T19:08:56;101825.75;;;16.81;73.29
71976;BME280;60680;52.182;5.398;2022-10-04T19:12:03;101815.03;;;16.84;73.48
71976;BME280;60680;52.182;5.398;2022-10-04T19:30:42;101789.94;;;16.79;73.61
71976;BME280;60680;52.182;5.398;2022-10-04T19:34:19;101789.94;;;16.79;73.57
71976;BME280;60680;52.182;5.398;2022-10-04T19:39:38;101790.81;;;16.79;73.17
71976;BME280;60680;52.182;5.398;2022-10-04T19:42:10;101789.94;;;16.79;73.95
71976;BME280;60680;52.182;5.398;2022-10-04T19:48:19;101788.56;;;16.73;73.63
71976;BME280;60680;52.182;5.398;2022-10-04T19:50:59;101791.56;;;16.67;73.53
71976;BME280;60680;52.182;5.398;2022-10-04T19:53:43;101788.72;;;16.70;73.82
71976;BME280;60680;52.182;5.398;2022-10-04T19:56:19;101793.06;;;16.71;73.92
71976;BME280;60680;52.182;5.398;2022-10-04T20:01:26;101801.97;;;16.68;73.69
71976;BME280;60680;52.182;5.398;2022-10-04T20:03:55;101798.47;;;16.68;74.09
71976;BME280;60680;52.182;5.398;2022-10-04T20:06:53;101795.59;;;16.73;73.58
71976;BME280;60680;52.182;5.398;2022-10-04T20:12:28;101799.53;;;16.65;73.61
71976;BME280;60680;52.182;5.398;2022-10-04T20:15:17;101808.63;;;16.60;74.17
71976;BME280;60680;52.182;5.398;2022-10-04T20:17:52;101799.03;;;16.44;74.58
71976;BME280;60680;52.182;5.398;2022-10-04T20:26:08;101812.56;;;16.67;73.97
71976;BME280;60680;52.182;5.398;2022-10-04T20:28:38;101812.50;;;16.68;74.18
71976;BME280;60680;52.182;5.398;2022-10-04T20:33:51;101802.06;;;16.67;73.28
71976;BME280;60680;52.182;5.398;2022-10-04T20:44:44;101801.31;;;16.65;73.95
71976;BME280;60680;52.182;5.398;2022-10-04T20:47:19;101807.50;;;16.64;73.26
71976;BME280;60680;52.182;5.398;2022-10-04T20:49:50;101804.13;;;16.62;73.63
71976;BME280;60680;52.182;5.398;2022-10-04T20:52:18;101807.69;;;16.61;73.92
71976;BME280;60680;52.182;5.398;2022-10-04T20:54:49;101813.78;;;16.61;73.58
71976;BME280;60680;52.182;5.398;2022-10-04T20:57:19;101820.91;;;16.59;73.88
71976;BME280;60680;52.182;5.398;2022-10-04T20:59:50;101827.13;;;16.58;73.49
71976;BME280;60680;52.182;5.398;2022-10-04T21:02:22;101821.94;;;16.57;73.67
71976;BME280;60680;52.182;5.398;2022-10-04T21:04:49;101821.94;;;16.57;73.65
71976;BME280;60680;52.182;5.398;2022-10-04T21:07:20;101820.91;;;16.59;74.10
71976;BME280;60680;52.182;5.398;2022-10-04T21:09:49;101818.47;;;16.56;73.71
71976;BME280;60680;52.182;5.398;2022-10-04T21:12:35;101819.25;;;16.58;73.58
71976;BME280;60680;52.182;5.398;2022-10-04T21:15:17;101825.41;;;16.57;73.95
71976;BME280;60680;52.182;5.398;2022-10-04T21:20:52;101823.44;;;16.61;73.77
71976;BME280;60680;52.182;5.398;2022-10-04T21:26:20;101825.41;;;16.57;73.49
71976;BME280;60680;52.182;5.398;2022-10-04T21:28:57;101822.16;;;16.54;73.88
71976;BME280;60680;52.182;5.398;2022-10-04T21:31:23;101830.09;;;16.52;73.99
71976;BME280;60680;52.182;5.398;2022-10-04T21:33:50;101823.16;;;16.51;73.82
71976;BME280;60680;52.182;5.398;2022-10-04T21:36:16;101826.72;;;16.50;74.15
71976;BME280;60680;52.182;5.398;2022-10-04T21:38:43;101818.94;;;16.48;73.79